createdAt,value
2017-06-11T00:02:09.112Z,16.80
2017-06-11T00:04:36.787Z,16.70
2017-06-11T00:07:04.366Z,16.60
2017-06-11T00:09:31.907Z,16.50
2017-06-11T00:11:59.578Z,16.50
2017-06-11T00:14:27.108Z,16.50
2017-06-11T00:16:55.384Z,16.50
2017-06-11T00:19:23.685Z,16.40
2017-06-11T00:21:51.191Z,16.40
2017-06-11T00:24:18.795Z,16.50
2017-06-11T00:26:47.215Z,16.50
2017-06-11T00:29:14.740Z,16.50
2017-06-11T00:31:42.243Z,16.40
2017-06-11T00:34:09.795Z,16.40
2017-06-11T00:36:37.295Z,16.40
2017-06-11T00:39:04.869Z,16.40
2017-06-11T00:41:32.391Z,16.40
2017-06-11T00:44:00.704Z,16.40
2017-06-11T00:46:28.267Z,16.30
2017-06-11T00:48:56.612Z,16.30
2017-06-11T00:51:24.907Z,16.20
2017-06-11T00:53:52.414Z,16.20
2017-06-11T00:56:20.034Z,16.30
2017-06-11T00:58:47.544Z,16.30
2017-06-11T01:01:15.063Z,16.30
2017-06-11T01:03:42.575Z,16.30
2017-06-11T01:06:10.878Z,16.10
2017-06-11T01:08:38.472Z,16.10
2017-06-11T01:11:05.996Z,16.10
2017-06-11T01:13:33.507Z,16.10
2017-06-11T01:16:01.013Z,16.10
2017-06-11T01:18:28.550Z,16.00
2017-06-11T01:20:56.818Z,16.10
2017-06-11T01:23:25.108Z,16.00
2017-06-11T01:25:53.403Z,16.00
2017-06-11T01:28:21.052Z,15.90
2017-06-11T01:30:48.558Z,16.00
2017-06-11T01:33:16.593Z,15.90
2017-06-11T01:35:45.084Z,15.90
2017-06-11T01:38:12.608Z,15.80
2017-06-11T01:40:40.908Z,15.80
2017-06-11T01:43:08.431Z,15.80
2017-06-11T01:45:36.711Z,15.80
2017-06-11T01:48:05.090Z,15.70
2017-06-11T01:50:33.372Z,15.80
2017-06-11T01:53:01.643Z,15.80
2017-06-11T01:55:29.952Z,15.80
2017-06-11T01:57:57.975Z,15.70
2017-06-11T02:00:25.496Z,15.70
2017-06-11T02:02:53.728Z,15.70
2017-06-11T02:05:22.032Z,15.40
2017-06-11T02:07:49.543Z,15.40
2017-06-11T02:10:17.068Z,15.40
2017-06-11T02:12:44.577Z,15.40
2017-06-11T02:15:12.867Z,15.40
2017-06-11T02:17:40.439Z,15.30
2017-06-11T02:20:07.963Z,15.30
2017-06-11T02:22:36.880Z,15.40
2017-06-11T02:25:04.444Z,15.30
2017-06-11T02:27:31.956Z,15.30
2017-06-11T02:29:59.480Z,15.40
2017-06-11T02:32:27.006Z,15.40
2017-06-11T02:34:54.580Z,15.40
2017-06-11T02:37:22.140Z,15.30
2017-06-11T02:39:50.129Z,15.20
2017-06-11T02:42:17.663Z,15.20
2017-06-11T02:44:45.171Z,15.10
2017-06-11T02:47:12.785Z,15.10
2017-06-11T02:49:40.341Z,15.10
2017-06-11T02:52:07.867Z,15.10
2017-06-11T02:54:36.147Z,15.10
2017-06-11T02:57:04.455Z,15.00
2017-06-11T02:59:32.013Z,15.00
2017-06-11T03:01:59.540Z,15.10
2017-06-11T03:04:27.851Z,15.00
2017-06-11T03:06:55.371Z,15.00
2017-06-11T03:09:23.648Z,15.10
2017-06-11T03:12:04.015Z,15.10
2017-06-11T03:14:32.287Z,15.00
2017-06-11T03:17:00.592Z,15.00
2017-06-11T03:19:28.100Z,15.00
2017-06-11T03:21:55.707Z,15.00
2017-06-11T03:24:23.231Z,15.00
2017-06-11T03:26:51.507Z,15.00
2017-06-11T03:29:19.802Z,15.00
2017-06-11T03:31:47.789Z,14.90
2017-06-11T03:34:15.351Z,14.90
2017-06-11T03:36:42.908Z,14.90
2017-06-11T03:39:10.491Z,14.90
2017-06-11T03:41:38.265Z,14.90
2017-06-11T03:44:05.892Z,14.90
2017-06-11T03:46:33.401Z,14.90
2017-06-11T03:49:00.924Z,15.00
2017-06-11T03:51:28.427Z,15.00
2017-06-11T03:53:56.723Z,14.90
2017-06-11T03:56:24.999Z,14.90
2017-06-11T03:58:53.273Z,14.90
2017-06-11T04:01:21.567Z,15.00
2017-06-11T04:03:49.080Z,15.00
2017-06-11T04:06:16.689Z,15.00
2017-06-11T04:08:44.297Z,15.00
2017-06-11T04:11:11.883Z,15.10
2017-06-11T04:13:39.472Z,15.10
2017-06-11T04:16:07.035Z,15.10
2017-06-11T04:18:34.692Z,15.10
2017-06-11T04:21:02.280Z,15.20
2017-06-11T04:23:29.787Z,15.20
2017-06-11T04:25:57.315Z,15.20
2017-06-11T04:28:24.824Z,15.30
2017-06-11T04:30:52.378Z,15.30
2017-06-11T04:33:19.936Z,15.40
2017-06-11T04:35:47.439Z,15.50
2017-06-11T04:38:14.964Z,15.50
2017-06-11T04:40:42.472Z,15.60
2017-06-11T04:43:09.995Z,15.60
2017-06-11T04:45:37.528Z,15.60
2017-06-11T04:48:05.092Z,15.70
2017-06-11T04:50:32.652Z,15.70
2017-06-11T04:53:00.182Z,15.80
2017-06-11T04:55:28.463Z,16.00
2017-06-11T04:57:56.859Z,16.10
2017-06-11T05:00:24.364Z,16.00
2017-06-11T05:02:52.085Z,16.10
2017-06-11T05:05:19.610Z,16.20
2017-06-11T05:07:47.912Z,16.40
2017-06-11T05:10:15.494Z,16.30
2017-06-11T05:12:43.011Z,16.50
2017-06-11T05:15:11.300Z,16.70
2017-06-11T05:17:39.131Z,16.70
2017-06-11T05:20:06.660Z,16.80
2017-06-11T05:22:34.167Z,16.90
2017-06-11T05:25:02.463Z,17.10
2017-06-11T05:27:30.436Z,17.10
2017-06-11T05:29:57.996Z,17.20
2017-06-11T05:32:25.524Z,17.30
2017-06-11T05:34:53.825Z,17.60
2017-06-11T05:37:21.392Z,17.60
2017-06-11T05:39:48.896Z,17.70
2017-06-11T05:42:16.415Z,17.90
2017-06-11T05:44:43.931Z,18.00
2017-06-11T05:47:12.220Z,18.30
2017-06-11T05:49:39.730Z,18.30
2017-06-11T05:52:07.272Z,18.30
2017-06-11T05:54:34.783Z,18.50
2017-06-11T05:57:03.055Z,18.70
2017-06-11T05:59:31.347Z,18.80
2017-06-11T06:01:58.851Z,18.80
2017-06-11T06:04:26.375Z,18.90
2017-06-11T06:06:53.888Z,19.10
2017-06-11T06:09:21.411Z,19.20
2017-06-11T06:11:49.969Z,19.30
2017-06-11T06:14:17.489Z,19.40
2017-06-11T06:16:45.003Z,19.60
2017-06-11T06:19:12.544Z,19.70
2017-06-11T06:21:40.815Z,19.80
2017-06-11T06:24:08.398Z,20.00
2017-06-11T06:26:35.931Z,20.10
2017-06-11T06:29:03.439Z,20.20
2017-06-11T06:31:30.959Z,20.30
2017-06-11T06:33:58.467Z,20.30
2017-06-11T06:36:25.987Z,20.40
2017-06-11T06:38:53.656Z,20.50
2017-06-11T06:41:21.183Z,20.60
2017-06-11T06:43:48.755Z,20.70
2017-06-11T06:46:16.314Z,20.80
2017-06-11T06:48:43.828Z,20.90
2017-06-11T06:51:11.434Z,20.90
2017-06-11T06:53:38.939Z,21.00
2017-06-11T06:56:06.459Z,21.10
2017-06-11T06:58:33.975Z,21.20
2017-06-11T07:01:02.283Z,21.30
2017-06-11T07:03:30.147Z,21.20
2017-06-11T07:05:57.656Z,21.40
2017-06-11T07:08:25.274Z,21.40
2017-06-11T07:10:53.204Z,21.50
2017-06-11T07:13:21.493Z,21.60
2017-06-11T07:15:50.228Z,21.70
2017-06-11T07:18:17.855Z,21.70
2017-06-11T07:20:45.451Z,21.80
2017-06-11T07:23:13.003Z,21.90
2017-06-11T07:25:40.494Z,22.00
2017-06-11T07:28:08.019Z,22.10
2017-06-11T07:30:35.527Z,22.20
2017-06-11T07:33:03.827Z,22.40
2017-06-11T07:35:31.335Z,22.40
2017-06-11T07:37:58.940Z,22.40
2017-06-11T07:40:26.896Z,22.50
2017-06-11T07:42:54.403Z,22.70
2017-06-11T07:45:22.023Z,22.70
2017-06-11T07:47:49.531Z,22.80
2017-06-11T07:50:17.451Z,22.90
2017-06-11T07:52:45.015Z,23.00
2017-06-11T07:55:12.571Z,23.10
2017-06-11T07:57:40.076Z,23.10
2017-06-11T08:00:07.689Z,23.20
2017-06-11T08:02:35.248Z,23.30
2017-06-11T08:05:02.806Z,23.30
2017-06-11T08:07:30.316Z,23.40
2017-06-11T08:09:57.843Z,23.40
2017-06-11T08:12:25.359Z,23.50
2017-06-11T08:14:53.646Z,23.70
2017-06-11T08:17:21.210Z,23.70
2017-06-11T08:19:48.754Z,23.80
2017-06-11T08:22:17.029Z,24.00
2017-06-11T08:24:45.334Z,24.10
2017-06-11T08:27:13.807Z,24.00
2017-06-11T08:29:41.323Z,24.10
2017-06-11T08:32:08.842Z,24.20
2017-06-11T08:34:36.348Z,24.30
2017-06-11T08:37:04.967Z,24.50
2017-06-11T08:39:32.471Z,24.40
2017-06-11T08:41:59.991Z,24.50
2017-06-11T08:44:28.394Z,24.60
2017-06-11T08:46:55.922Z,24.70
2017-06-11T08:49:23.426Z,24.70
2017-06-11T08:51:51.145Z,24.70
2017-06-11T08:54:18.665Z,24.80
2017-06-11T08:56:46.979Z,24.90
2017-06-11T08:59:14.536Z,24.90
2017-06-11T09:01:42.091Z,25.00
2017-06-11T09:04:09.611Z,25.10
2017-06-11T09:06:37.115Z,25.10
2017-06-11T09:09:05.279Z,25.20
2017-06-11T09:11:32.836Z,25.30
2017-06-11T09:14:00.398Z,25.40
2017-06-11T09:16:28.524Z,25.40
2017-06-11T09:18:56.043Z,25.50
2017-06-11T09:21:23.587Z,25.60
2017-06-11T09:23:51.124Z,25.60
2017-06-11T09:26:19.400Z,25.80
2017-06-11T09:28:47.715Z,25.90
2017-06-11T09:31:15.223Z,25.90
2017-06-11T09:33:43.528Z,25.90
2017-06-11T09:36:11.092Z,25.90
2017-06-11T09:38:38.647Z,26.00
2017-06-11T09:41:06.155Z,26.00
2017-06-11T09:43:33.667Z,26.00
2017-06-11T09:46:01.840Z,26.10
2017-06-11T09:48:29.842Z,26.20
2017-06-11T09:50:57.463Z,26.30
2017-06-11T09:53:24.972Z,26.30
2017-06-11T09:55:53.311Z,26.40
2017-06-11T09:58:20.840Z,26.50
2017-06-11T10:00:49.138Z,26.60
2017-06-11T10:03:16.647Z,26.60
2017-06-11T10:05:44.254Z,26.70
2017-06-11T10:08:12.479Z,26.80
2017-06-11T10:10:40.090Z,26.90
2017-06-11T10:13:08.211Z,26.90
2017-06-11T10:15:35.821Z,27.00
2017-06-11T10:18:03.327Z,27.00
2017-06-11T10:20:30.849Z,27.00
2017-06-11T10:22:58.390Z,27.10
2017-06-11T10:25:25.935Z,27.10
2017-06-11T10:27:54.895Z,27.20
2017-06-11T10:30:22.396Z,27.20
2017-06-11T10:32:49.915Z,27.30
2017-06-11T10:35:18.341Z,27.40
2017-06-11T10:37:45.902Z,27.40
2017-06-11T10:40:13.412Z,27.40
2017-06-11T10:42:40.948Z,27.50
2017-06-11T10:45:08.475Z,27.60
2017-06-11T10:47:35.995Z,27.70
2017-06-11T10:50:04.312Z,27.90
2017-06-11T10:52:31.836Z,27.90
2017-06-11T10:55:00.109Z,28.70
2017-06-11T10:57:28.779Z,29.00
2017-06-11T10:59:56.287Z,29.00
2017-06-11T11:02:23.844Z,29.60
2017-06-11T11:04:51.351Z,29.80
2017-06-11T11:07:18.872Z,30.00
2017-06-11T11:09:46.375Z,30.30
2017-06-11T11:12:13.983Z,30.50
2017-06-11T11:14:41.675Z,30.70
2017-06-11T11:17:09.178Z,30.90
2017-06-11T11:19:36.719Z,31.00
2017-06-11T11:22:04.316Z,31.00
2017-06-11T11:24:31.877Z,31.00
2017-06-11T11:26:59.391Z,30.90
2017-06-11T11:29:26.988Z,30.80
2017-06-11T11:31:54.491Z,30.70
2017-06-11T11:34:22.110Z,30.40
2017-06-11T11:36:49.671Z,30.20
2017-06-11T11:39:17.192Z,30.00
2017-06-11T11:41:44.713Z,29.90
2017-06-11T11:44:12.245Z,29.70
2017-06-11T11:46:39.807Z,29.50
2017-06-11T11:49:07.362Z,29.20
2017-06-11T11:51:34.870Z,29.10
2017-06-11T11:54:02.372Z,29.00
2017-06-11T11:56:29.935Z,28.90
2017-06-11T11:58:57.495Z,28.90
2017-06-11T12:01:25.018Z,28.80
2017-06-11T12:03:52.614Z,28.80
2017-06-11T12:06:20.172Z,28.80
2017-06-11T12:08:47.730Z,28.80
2017-06-11T12:11:15.418Z,28.80
2017-06-11T12:13:42.918Z,28.80
2017-06-11T12:16:11.246Z,28.70
2017-06-11T12:18:38.754Z,28.70
2017-06-11T12:21:07.050Z,28.70
2017-06-11T12:23:34.622Z,28.70
2017-06-11T12:26:02.904Z,28.70
2017-06-11T12:28:30.422Z,28.70
2017-06-11T12:30:57.923Z,28.80
2017-06-11T12:33:25.474Z,28.80
2017-06-11T12:35:53.327Z,28.80
2017-06-11T12:38:20.911Z,28.90
2017-06-11T12:40:48.414Z,28.90
2017-06-11T12:43:15.935Z,29.00
2017-06-11T12:45:43.443Z,29.00
2017-06-11T12:48:11.730Z,29.10
2017-06-11T12:50:39.239Z,29.10
2017-06-11T12:53:06.758Z,29.20
2017-06-11T12:55:34.269Z,29.20
2017-06-11T12:58:01.766Z,29.20
2017-06-11T13:00:29.295Z,29.20
2017-06-11T13:02:57.408Z,29.20
2017-06-11T13:05:24.968Z,29.20
2017-06-11T13:07:52.475Z,29.20
2017-06-11T13:10:19.994Z,29.20
2017-06-11T13:12:47.503Z,29.30
2017-06-11T13:15:15.654Z,29.40
2017-06-11T13:17:43.166Z,29.40
2017-06-11T13:20:10.695Z,29.40
2017-06-11T13:22:39.011Z,29.40
2017-06-11T13:25:06.575Z,29.40
2017-06-11T13:27:34.482Z,29.40
2017-06-11T13:30:02.011Z,29.40
2017-06-11T13:32:29.539Z,29.50
2017-06-11T13:34:57.107Z,29.60
2017-06-11T13:37:24.630Z,29.60
2017-06-11T13:39:52.238Z,29.70
2017-06-11T13:42:19.758Z,29.80
2017-06-11T13:44:48.850Z,29.80
2017-06-11T13:47:17.139Z,29.90
2017-06-11T13:49:44.718Z,29.90
2017-06-11T13:52:12.272Z,30.00
2017-06-11T13:54:40.051Z,30.00
2017-06-11T13:57:07.843Z,30.00
2017-06-11T13:59:35.347Z,30.00
2017-06-11T14:02:03.532Z,30.10
2017-06-11T14:04:31.091Z,30.10
2017-06-11T14:06:59.191Z,30.20
2017-06-11T14:09:26.711Z,30.30
2017-06-11T14:11:54.422Z,30.40
2017-06-11T14:14:22.044Z,30.40
2017-06-11T14:16:50.026Z,30.50
2017-06-11T14:19:17.571Z,30.60
2017-06-11T14:21:45.078Z,30.70
2017-06-11T14:24:12.599Z,30.80
2017-06-11T14:26:40.127Z,31.00
2017-06-11T14:29:07.651Z,31.10
2017-06-11T14:31:35.510Z,31.10
2017-06-11T14:34:03.030Z,31.20
2017-06-11T14:36:31.445Z,31.30
2017-06-11T14:38:58.962Z,31.40
2017-06-11T14:41:26.523Z,31.50
2017-06-11T14:43:54.026Z,31.70
2017-06-11T14:46:21.550Z,31.90
2017-06-11T14:48:49.058Z,32.10
2017-06-11T14:51:16.964Z,32.20
2017-06-11T14:53:45.036Z,32.20
2017-06-11T14:56:12.696Z,32.40
2017-06-11T14:58:40.206Z,32.50
2017-06-11T15:01:07.734Z,32.70
2017-06-11T15:03:35.759Z,32.70
2017-06-11T15:06:03.346Z,32.80
2017-06-11T15:08:30.850Z,32.90
2017-06-11T15:10:58.786Z,32.90
2017-06-11T15:13:26.326Z,33.00
2017-06-11T15:15:53.831Z,33.10
2017-06-11T15:18:21.351Z,33.20
2017-06-11T15:20:48.850Z,33.60
2017-06-11T15:23:16.372Z,34.30
2017-06-11T15:25:43.874Z,34.90
2017-06-11T15:28:11.838Z,35.80
2017-06-11T15:30:39.342Z,37.00
2017-06-11T15:33:06.903Z,38.20
2017-06-11T15:35:34.415Z,38.90
2017-06-11T15:38:01.939Z,39.10
2017-06-11T15:40:29.893Z,39.30
2017-06-11T15:42:57.422Z,39.60
2017-06-11T15:45:25.710Z,40.70
2017-06-11T15:47:53.279Z,40.60
2017-06-11T15:50:20.807Z,40.70
2017-06-11T15:52:49.074Z,40.00
2017-06-11T15:55:16.670Z,40.00
2017-06-11T15:57:44.904Z,39.10
2017-06-11T16:00:12.446Z,38.30
2017-06-11T16:02:39.963Z,37.70
2017-06-11T16:05:07.491Z,37.40
2017-06-11T16:07:36.005Z,37.10
2017-06-11T16:10:03.551Z,37.10
2017-06-11T16:12:31.064Z,36.70
2017-06-11T16:14:58.596Z,36.10
2017-06-11T16:17:26.477Z,35.50
2017-06-11T16:19:54.014Z,35.40
2017-06-11T16:22:21.515Z,35.40
2017-06-11T16:24:49.135Z,35.90
2017-06-11T16:27:16.678Z,36.00
2017-06-11T16:29:44.182Z,35.80
2017-06-11T16:32:11.707Z,35.20
2017-06-11T16:34:39.230Z,34.60
2017-06-11T16:37:07.679Z,33.40
2017-06-11T16:39:35.190Z,33.40
2017-06-11T16:42:02.718Z,33.10
2017-06-11T16:44:30.312Z,32.70
2017-06-11T16:46:57.867Z,32.40
2017-06-11T16:49:25.430Z,32.20
2017-06-11T16:51:53.003Z,32.10
2017-06-11T16:54:20.555Z,32.30
2017-06-11T16:56:48.058Z,32.50
2017-06-11T16:59:15.667Z,32.50
2017-06-11T17:01:43.230Z,32.40
2017-06-11T17:04:10.757Z,32.20
2017-06-11T17:06:38.351Z,32.00
2017-06-11T17:09:05.890Z,31.80
2017-06-11T17:11:34.197Z,31.50
2017-06-11T17:14:01.836Z,31.40
2017-06-11T17:16:29.339Z,31.20
2017-06-11T17:18:56.845Z,30.90
2017-06-11T17:21:24.511Z,30.80
2017-06-11T17:23:52.070Z,30.60
2017-06-11T17:26:19.596Z,30.50
2017-06-11T17:28:47.099Z,30.40
2017-06-11T17:31:14.627Z,30.30
2017-06-11T17:33:42.132Z,30.30
2017-06-11T17:36:09.651Z,30.20
2017-06-11T17:38:37.161Z,30.20
2017-06-11T17:41:04.682Z,30.10
2017-06-11T17:43:32.255Z,30.10
2017-06-11T17:46:00.000Z,30.00
2017-06-11T17:48:28.026Z,30.00
2017-06-11T17:50:55.635Z,30.00
2017-06-11T17:53:23.187Z,29.90
2017-06-11T17:55:50.747Z,29.90
2017-06-11T17:58:18.271Z,29.80
2017-06-11T18:00:45.783Z,29.70
2017-06-11T18:03:13.303Z,29.70
2017-06-11T18:05:40.887Z,29.60
2017-06-11T18:08:08.409Z,29.50
2017-06-11T18:10:36.682Z,29.50
2017-06-11T18:13:04.970Z,29.60
2017-06-11T18:15:33.403Z,29.70
2017-06-11T18:18:00.926Z,29.60
2017-06-11T18:20:28.539Z,29.60
2017-06-11T18:22:56.064Z,29.60
2017-06-11T18:25:23.566Z,29.60
2017-06-11T18:27:51.131Z,29.50
2017-06-11T18:30:19.521Z,29.30
2017-06-11T18:32:47.798Z,29.30
2017-06-11T18:35:16.042Z,29.30
2017-06-11T18:37:43.663Z,29.10
2017-06-11T18:40:11.191Z,29.10
2017-06-11T18:42:39.495Z,28.80
2017-06-11T18:45:07.055Z,28.90
2017-06-11T18:47:35.038Z,28.70
2017-06-11T18:50:02.567Z,28.60
2017-06-11T18:52:30.075Z,28.50
2017-06-11T18:54:57.603Z,28.40
2017-06-11T18:57:25.148Z,28.30
2017-06-11T18:59:52.716Z,28.20
2017-06-11T19:02:20.247Z,28.20
2017-06-11T19:04:48.554Z,28.00
2017-06-11T19:07:16.108Z,28.00
2017-06-11T19:09:43.613Z,27.90
2017-06-11T19:12:11.392Z,27.90
2017-06-11T19:14:39.700Z,27.80
2017-06-11T19:17:07.263Z,27.80
2017-06-11T19:19:34.774Z,27.60
2017-06-11T19:22:02.295Z,27.50
2017-06-11T19:24:29.803Z,27.30
2017-06-11T19:26:58.099Z,27.20
2017-06-11T19:29:25.606Z,27.20
2017-06-11T19:31:53.232Z,27.20
2017-06-11T19:34:21.589Z,27.10
2017-06-11T19:36:50.320Z,27.00
2017-06-11T19:39:17.838Z,27.00
2017-06-11T19:41:45.364Z,27.00
2017-06-11T19:44:12.877Z,27.00
2017-06-11T19:46:40.408Z,26.90
2017-06-11T19:49:09.498Z,26.50
2017-06-11T19:51:37.807Z,26.40
2017-06-11T19:54:05.340Z,26.30
2017-06-11T19:56:33.606Z,26.40
2017-06-11T19:59:01.903Z,26.30
2017-06-11T20:01:29.829Z,26.30
2017-06-11T20:03:57.761Z,26.30
2017-06-11T20:06:26.091Z,26.30
2017-06-11T20:08:54.395Z,26.30
2017-06-11T20:11:21.902Z,26.30
2017-06-11T20:13:49.510Z,26.20
2017-06-11T20:16:17.018Z,26.20
2017-06-11T20:18:44.535Z,26.20
2017-06-11T20:21:12.035Z,26.10
2017-06-11T20:23:39.643Z,26.10
2017-06-11T20:26:07.206Z,26.10
2017-06-11T20:28:34.710Z,26.10
2017-06-11T20:31:02.848Z,26.00
2017-06-11T20:33:30.351Z,26.00
2017-06-11T20:35:57.955Z,25.90
2017-06-11T20:38:25.463Z,25.80
2017-06-11T20:40:52.978Z,25.70
2017-06-11T20:43:20.487Z,25.70
2017-06-11T20:45:48.090Z,25.60
2017-06-11T20:48:16.020Z,25.60
2017-06-11T20:50:44.307Z,25.50
2017-06-11T20:53:12.610Z,25.50
2017-06-11T20:55:40.168Z,25.50
2017-06-11T20:58:07.734Z,25.50
2017-06-11T21:00:35.234Z,25.40
2017-06-11T21:03:02.843Z,25.50
2017-06-11T21:05:30.352Z,25.50
2017-06-11T21:07:57.871Z,25.50
2017-06-11T21:10:25.370Z,25.50
2017-06-11T21:12:52.978Z,25.50
2017-06-11T21:15:20.539Z,25.40
2017-06-11T21:17:48.059Z,25.40
2017-06-11T21:20:16.332Z,25.40
2017-06-11T21:22:44.622Z,25.40
2017-06-11T21:25:12.893Z,25.30
2017-06-11T21:27:41.174Z,25.30
2017-06-11T21:30:09.443Z,25.20
2017-06-11T21:32:37.742Z,25.10
2017-06-11T21:35:05.247Z,25.10
2017-06-11T21:37:32.742Z,25.10
2017-06-11T21:40:01.039Z,25.00
2017-06-11T21:42:28.549Z,25.00
2017-06-11T21:44:56.075Z,25.00
2017-06-11T21:47:23.612Z,25.00
2017-06-11T21:49:51.131Z,24.90
2017-06-11T21:52:18.642Z,24.90
2017-06-11T21:54:46.186Z,24.90
2017-06-11T21:57:14.443Z,24.90
2017-06-11T21:59:43.059Z,24.80
2017-06-11T22:02:10.567Z,24.80
2017-06-11T22:04:38.098Z,24.90
2017-06-11T22:07:05.640Z,24.80
2017-06-11T22:09:33.183Z,24.80
2017-06-11T22:12:00.708Z,24.80
2017-06-11T22:14:29.015Z,24.80
2017-06-11T22:16:56.575Z,24.80
2017-06-11T22:19:24.792Z,24.80
2017-06-11T22:21:52.315Z,24.80
2017-06-11T22:24:19.822Z,24.80
2017-06-11T22:26:47.423Z,24.80
2017-06-11T22:29:14.927Z,24.80
2017-06-11T22:31:42.543Z,24.70
2017-06-11T22:34:10.048Z,24.80
2017-06-11T22:36:37.571Z,24.70
2017-06-11T22:39:05.818Z,24.70
2017-06-11T22:41:34.599Z,24.70
2017-06-11T22:44:02.886Z,24.60
2017-06-11T22:46:31.171Z,24.60
2017-06-11T22:48:58.734Z,24.50
2017-06-11T22:51:26.763Z,24.50
2017-06-11T22:53:54.291Z,24.40
2017-06-11T22:56:21.795Z,24.30
2017-06-11T22:58:50.078Z,24.30
2017-06-11T23:01:18.371Z,24.30
2017-06-11T23:03:45.932Z,24.30
2017-06-11T23:06:13.487Z,24.20
2017-06-11T23:08:41.050Z,24.20
2017-06-11T23:11:08.554Z,24.20
2017-06-11T23:13:36.167Z,24.10
2017-06-11T23:16:03.675Z,24.10
2017-06-11T23:18:31.284Z,24.00
2017-06-11T23:20:58.847Z,24.00
2017-06-11T23:23:26.399Z,24.00
2017-06-11T23:25:54.801Z,23.90
2017-06-11T23:28:22.526Z,23.90
2017-06-11T23:30:50.810Z,23.80
2017-06-11T23:33:18.603Z,23.80
2017-06-11T23:35:46.126Z,23.80
2017-06-11T23:38:13.711Z,23.70
2017-06-11T23:40:41.231Z,23.80
2017-06-11T23:43:09.559Z,23.60
2017-06-11T23:45:37.083Z,23.60
2017-06-11T23:48:04.587Z,23.60
2017-06-11T23:50:32.111Z,23.50
2017-06-11T23:52:59.795Z,23.50
2017-06-11T23:55:27.332Z,23.40
2017-06-11T23:57:54.835Z,23.40
